Time;durP1;ratioP1;P1;durP2;ratioP2;P2;SDS_P1;SDS_P2;PMS_P1;PMS_P2;Temp;Humidity;BMP_temperature;BMP_pressure;BME280_temperature;BME280_humidity;BME280_pressure;Samples;Min_cycle;Max_cycle;Signal;HPM_P1;HPM_P2
2021/10/13 00:00:07;;;;;;;3.42;1.30;;;9.20;91.40;;;;;;4924482;29;20029;-72
2021/10/13 00:02:32;;;;;;;3.00;1.70;;;9.20;91.50;;;;;;4918916;29;20036;-72
2021/10/13 00:04:58;;;;;;;3.83;1.40;;;9.20;91.50;;;;;;4916596;29;20032;-73
2021/10/13 00:07:23;;;;;;;5.80;1.77;;;9.10;91.60;;;;;;4919392;29;20358;-72
2021/10/13 00:09:48;;;;;;;3.13;1.77;;;9.10;91.70;;;;;;4917227;29;20115;-72
2021/10/13 00:12:14;;;;;;;2.70;1.48;;;9.10;91.60;;;;;;4917968;29;20845;-73
2021/10/13 00:14:39;;;;;;;2.80;1.55;;;9.10;91.60;;;;;;4916676;29;20171;-72
2021/10/13 00:17:06;;;;;;;3.55;1.50;;;9.10;91.70;;;;;;4899582;29;20031;-72
2021/10/13 00:19:31;;;;;;;2.40;1.45;;;9.00;91.70;;;;;;4920720;29;20036;-73
2021/10/13 00:21:57;;;;;;;3.22;1.77;;;9.00;91.80;;;;;;4933689;29;20038;-73
2021/10/13 00:24:22;;;;;;;2.50;1.58;;;9.00;91.90;;;;;;4903900;29;20028;-71
2021/10/13 00:26:48;;;;;;;2.38;1.33;;;8.90;91.90;;;;;;4918591;29;20075;-71
2021/10/13 00:29:13;;;;;;;2.30;1.48;;;8.90;91.90;;;;;;4923926;29;20032;-71
2021/10/13 00:31:39;;;;;;;2.90;1.35;;;9.00;91.90;;;;;;4921057;29;20543;-70
2021/10/13 00:34:06;;;;;;;3.38;1.63;;;8.90;92.00;;;;;;4920258;29;20032;-71
2021/10/13 00:36:31;;;;;;;4.55;1.73;;;9.00;92.00;;;;;;4921377;29;20035;-71
2021/10/13 00:38:57;;;;;;;3.95;2.03;;;8.90;92.10;;;;;;4922587;29;20036;-71
2021/10/13 00:41:22;;;;;;;3.85;1.70;;;8.90;92.10;;;;;;4920816;29;20024;-71
2021/10/13 00:43:48;;;;;;;5.55;1.30;;;8.90;92.10;;;;;;4926977;29;20628;-71
2021/10/13 00:46:13;;;;;;;2.97;1.70;;;8.80;92.20;;;;;;4927473;29;20392;-71
2021/10/13 00:48:39;;;;;;;4.53;1.48;;;8.80;92.20;;;;;;4899882;29;20032;-72
2021/10/13 00:51:04;;;;;;;2.80;1.50;;;8.80;92.30;;;;;;4915583;29;20036;-71
2021/10/13 00:53:30;;;;;;;4.57;1.67;;;8.80;92.30;;;;;;4921670;29;20043;-71
2021/10/13 00:55:58;;;;;;;3.50;1.60;;;8.80;92.40;;;;;;4917607;29;20107;-72
2021/10/13 00:58:24;;;;;;;3.33;1.40;;;8.70;92.40;;;;;;4916584;29;20032;-72
2021/10/13 01:00:56;;;;;;;1.55;1.10;;;8.70;92.50;;;;;;4916266;29;20369;-72
2021/10/13 01:03:44;;;;;;;3.45;1.60;;;8.70;92.50;;;;;;4923681;29;20035;-72
2021/10/13 01:06:23;;;;;;;3.13;1.52;;;8.70;92.50;;;;;;4930163;29;20040;-72
2021/10/13 01:09:06;;;;;;;2.47;1.23;;;8.70;92.50;;;;;;4915686;29;20036;-71
2021/10/13 01:12:00;;;;;;;2.08;1.23;;;8.70;92.50;;;;;;4915571;29;20512;-70
2021/10/13 01:14:49;;;;;;;3.15;1.50;;;8.70;92.60;;;;;;4930665;29;20067;-71
2021/10/13 01:17:23;;;;;;;4.78;1.50;;;8.70;92.60;;;;;;4933221;29;20027;-71
2021/10/13 01:20:13;;;;;;;2.55;1.52;;;8.70;92.60;;;;;;4929836;29;20260;-71
2021/10/13 01:23:07;;;;;;;2.88;1.50;;;8.70;92.60;;;;;;4930641;29;20644;-71
2021/10/13 01:26:02;;;;;;;2.42;1.30;;;8.70;92.80;;;;;;4915735;29;20119;-70
2021/10/13 01:28:34;;;;;;;5.00;1.60;;;8.60;92.80;;;;;;4919017;29;20040;-70
2021/10/13 01:31:04;;;;;;;2.90;1.52;;;8.60;92.70;;;;;;4925149;29;20062;-70
2021/10/13 01:34:02;;;;;;;5.15;1.40;;;8.60;92.90;;;;;;4928395;29;20040;-70
2021/10/13 01:36:39;;;;;;;2.30;1.35;;;8.60;93.00;;;;;;4918163;29;20107;-71
2021/10/13 01:39:06;;;;;;;3.65;1.35;;;8.60;93.00;;;;;;4915705;29;20024;-70
2021/10/13 01:41:36;;;;;;;3.80;1.50;;;8.60;93.10;;;;;;4931534;29;20039;-70
2021/10/13 01:44:03;;;;;;;6.40;1.70;;;8.60;93.10;;;;;;4932152;29;20032;-71
2021/10/13 01:46:30;;;;;;;4.47;1.65;;;8.50;93.20;;;;;;4932955;29;20058;-70
2021/10/13 01:48:59;;;;;;;3.53;1.42;;;8.50;93.20;;;;;;4925772;29;20440;-71
2021/10/13 01:51:27;;;;;;;2.90;1.20;;;8.50;93.30;;;;;;4922674;29;20795;-72
2021/10/13 01:53:53;;;;;;;2.53;1.27;;;8.50;93.30;;;;;;4908093;29;20051;-72
2021/10/13 01:56:21;;;;;;;1.50;1.20;;;8.50;93.30;;;;;;4923898;29;20032;-72
2021/10/13 01:58:49;;;;;;;4.70;1.20;;;8.50;93.40;;;;;;4918406;29;20032;-71
2021/10/13 02:01:17;;;;;;;4.65;1.45;;;8.60;93.50;;;;;;4921753;29;20028;-71
2021/10/13 02:03:45;;;;;;;2.10;1.50;;;8.50;93.70;;;;;;4931213;29;20024;-72
2021/10/13 02:06:11;;;;;;;2.72;1.30;;;8.50;93.60;;;;;;4918849;29;20115;-71
2021/10/13 02:08:39;;;;;;;2.75;1.25;;;8.50;93.50;;;;;;4918898;29;20482;-71
2021/10/13 02:11:06;;;;;;;4.88;1.48;;;8.50;93.60;;;;;;4919068;29;20068;-71
2021/10/13 02:13:36;;;;;;;3.42;1.40;;;8.50;93.60;;;;;;4920368;29;20540;-72
2021/10/13 02:16:02;;;;;;;2.13;1.10;;;8.50;93.60;;;;;;4937669;29;20039;-72
2021/10/13 02:18:29;;;;;;;3.05;1.30;;;8.50;93.60;;;;;;4933438;29;20036;-72
2021/10/13 02:20:56;;;;;;;3.28;1.30;;;8.50;93.70;;;;;;4918910;29;20040;-72
2021/10/13 02:23:28;;;;;;;2.13;1.20;;;8.40;93.70;;;;;;4918994;29;20032;-72
2021/10/13 02:25:55;;;;;;;1.77;1.08;;;8.50;93.80;;;;;;4926533;29;20484;-72
2021/10/13 02:28:33;;;;;;;4.15;1.48;;;8.40;93.80;;;;;;4917874;29;20043;-72
2021/10/13 02:30:58;;;;;;;4.10;1.40;;;8.50;93.90;;;;;;4926379;29;20137;-72
2021/10/13 02:33:24;;;;;;;2.10;1.15;;;8.40;94.00;;;;;;4926167;29;20241;-72
2021/10/13 02:35:51;;;;;;;1.90;1.20;;;8.40;93.80;;;;;;4918423;29;20036;-72
2021/10/13 02:38:17;;;;;;;3.03;2.35;;;8.50;93.90;;;;;;4918505;29;20178;-72
2021/10/13 02:40:42;;;;;;;3.20;1.13;;;8.50;93.90;;;;;;4918459;29;20465;-72
2021/10/13 02:43:10;;;;;;;2.15;1.27;;;8.50;93.90;;;;;;4917697;29;20043;-72
2021/10/13 02:45:40;;;;;;;3.72;1.40;;;8.50;93.90;;;;;;4936475;29;20384;-72
2021/10/13 02:48:15;;;;;;;3.28;1.40;;;8.50;94.00;;;;;;4928991;29;20079;-73
2021/10/13 02:50:56;;;;;;;2.15;1.25;;;8.50;94.00;;;;;;4918437;29;20032;-72
2021/10/13 02:53:44;;;;;;;2.20;1.05;;;8.50;94.00;;;;;;4923205;29;20036;-72
2021/10/13 02:56:24;;;;;;;2.47;1.35;;;8.50;94.00;;;;;;4918167;29;20028;-72
2021/10/13 02:59:07;;;;;;;2.70;1.40;;;8.50;94.00;;;;;;4917844;29;20060;-72
2021/10/13 03:01:41;;;;;;;2.70;1.40;;;8.50;94.00;;;;;;4900586;29;20056;-72
2021/10/13 03:04:10;;;;;;;3.53;1.80;;;8.50;94.00;;;;;;4923980;29;20035;-72
2021/10/13 03:06:39;;;;;;;3.55;1.42;;;8.50;94.00;;;;;;4937181;29;20039;-71
2021/10/13 03:09:07;;;;;;;2.63;1.48;;;8.50;94.10;;;;;;4933708;29;20031;-72
2021/10/13 03:11:33;;;;;;;2.92;1.63;;;8.50;94.10;;;;;;4936648;29;20027;-71
2021/10/13 03:14:00;;;;;;;3.10;1.50;;;8.50;94.20;;;;;;4927603;29;20072;-71
2021/10/13 03:16:27;;;;;;;1.98;1.30;;;8.50;94.20;;;;;;4900392;29;20540;-71
2021/10/13 03:18:55;;;;;;;2.35;1.40;;;8.50;94.20;;;;;;4918363;29;20028;-71
2021/10/13 03:21:24;;;;;;;3.53;1.75;;;8.50;94.30;;;;;;4932682;29;20063;-71
2021/10/13 03:23:50;;;;;;;4.50;1.90;;;8.40;94.40;;;;;;4906978;29;20036;-71
2021/10/13 03:26:15;;;;;;;3.20;1.70;;;8.40;94.30;;;;;;4931829;29;20361;-71
2021/10/13 03:28:41;;;;;;;2.05;1.20;;;8.50;94.60;;;;;;4929191;29;20046;-71
2021/10/13 03:31:07;;;;;;;4.72;2.50;;;8.50;94.40;;;;;;4930045;29;20048;-71
2021/10/13 03:33:36;;;;;;;2.20;1.60;;;8.50;94.40;;;;;;4914514;29;20173;-71
2021/10/13 03:36:02;;;;;;;3.35;1.60;;;8.50;94.40;;;;;;4917627;29;20067;-71
2021/10/13 03:38:28;;;;;;;2.63;1.38;;;8.50;94.40;;;;;;4919259;29;20036;-71
2021/10/13 03:40:53;;;;;;;5.28;1.65;;;8.50;94.40;;;;;;4923921;29;20083;-71
2021/10/13 03:43:19;;;;;;;2.67;1.75;;;8.50;94.40;;;;;;4917546;29;20083;-72
2021/10/13 03:45:44;;;;;;;3.55;1.73;;;8.50;94.50;;;;;;4926586;29;20484;-71
2021/10/13 03:48:11;;;;;;;3.33;1.67;;;8.50;94.50;;;;;;4923560;29;20044;-71
2021/10/13 03:50:36;;;;;;;3.05;1.83;;;8.50;94.50;;;;;;4926952;29;20063;-71
2021/10/13 03:53:02;;;;;;;3.97;1.80;;;8.50;94.50;;;;;;4916542;29;20064;-70
2021/10/13 03:55:28;;;;;;;3.13;1.40;;;8.50;94.50;;;;;;4899700;29;20024;-70
2021/10/13 03:57:53;;;;;;;2.33;1.35;;;8.50;94.50;;;;;;4919759;29;20025;-70
2021/10/13 04:00:20;;;;;;;4.55;2.03;;;8.40;94.60;;;;;;4927424;29;20568;-70
2021/10/13 04:02:47;;;;;;;4.65;1.95;;;8.40;94.60;;;;;;4899732;29;20036;-70
2021/10/13 04:05:13;;;;;;;3.72;1.70;;;8.50;94.70;;;;;;4917911;29;20476;-71
2021/10/13 04:07:39;;;;;;;4.65;1.95;;;8.40;94.70;;;;;;4900276;29;20036;-70
2021/10/13 04:10:07;;;;;;;5.43;1.77;;;8.50;94.70;;;;;;4929569;29;20036;-70
2021/10/13 04:12:34;;;;;;;4.05;1.60;;;8.40;94.80;;;;;;4935400;29;20099;-70
2021/10/13 04:14:59;;;;;;;4.65;1.80;;;8.40;94.80;;;;;;4900983;29;20476;-71
2021/10/13 04:17:25;;;;;;;3.33;1.65;;;8.40;94.80;;;;;;4916469;29;20115;-72
2021/10/13 04:19:50;;;;;;;4.13;2.78;;;8.40;94.80;;;;;;4928540;29;20031;-71
2021/10/13 04:22:16;;;;;;;5.65;2.47;;;8.40;95.10;;;;;;4934840;29;20032;-71
2021/10/13 04:24:42;;;;;;;3.47;1.77;;;8.40;94.90;;;;;;4927641;29;20036;-71
2021/10/13 04:27:08;;;;;;;4.45;2.10;;;8.50;94.90;;;;;;4935271;29;20511;-70
2021/10/13 04:29:33;;;;;;;3.70;2.03;;;8.50;94.90;;;;;;4898856;29;20032;-71
2021/10/13 04:31:59;;;;;;;4.03;1.80;;;8.60;94.90;;;;;;4916119;29;20071;-72
2021/10/13 04:34:24;;;;;;;5.75;2.00;;;8.60;94.90;;;;;;4919362;29;20031;-71
2021/10/13 04:36:50;;;;;;;4.53;2.15;;;8.60;94.90;;;;;;4917754;29;20119;-72
2021/10/13 04:39:15;;;;;;;2.83;1.77;;;8.60;94.90;;;;;;4933203;29;20083;-71
2021/10/13 04:41:41;;;;;;;5.50;1.90;;;8.60;94.90;;;;;;4934169;29;20520;-71
2021/10/13 04:44:06;;;;;;;4.65;2.00;;;8.70;94.90;;;;;;4923897;29;20042;-71
2021/10/13 04:46:32;;;;;;;3.70;2.20;;;8.70;94.90;;;;;;4934979;29;20027;-72
2021/10/13 04:48:59;;;;;;;6.25;3.22;;;8.70;94.80;;;;;;4916809;29;20040;-70
2021/10/13 04:51:25;;;;;;;3.90;2.00;;;8.80;94.80;;;;;;4916058;29;20028;-72
2021/10/13 04:53:50;;;;;;;8.75;3.47;;;8.80;94.80;;;;;;4924286;29;20515;-71
2021/10/13 04:56:16;;;;;;;4.35;2.03;;;8.80;94.80;;;;;;4924918;29;20032;-71
2021/10/13 04:58:41;;;;;;;3.58;2.13;;;8.90;94.70;;;;;;4905840;29;20475;-71
2021/10/13 05:01:07;;;;;;;4.88;2.15;;;8.90;94.70;;;;;;4916030;29;20028;-71
2021/10/13 05:03:33;;;;;;;4.55;2.17;;;8.90;94.60;;;;;;4918758;29;20063;-72
2021/10/13 05:05:59;;;;;;;3.58;2.40;;;8.90;94.60;;;;;;4934707;29;20448;-72
2021/10/13 05:08:24;;;;;;;4.13;2.30;;;8.90;94.60;;;;;;4924259;29;20044;-71
2021/10/13 05:10:49;;;;;;;3.88;2.08;;;8.90;94.50;;;;;;4935267;29;20054;-72
2021/10/13 05:13:15;;;;;;;5.93;2.38;;;8.90;94.50;;;;;;4931331;29;22210;-70
2021/10/13 05:15:43;;;;;;;5.75;2.60;;;9.00;94.50;;;;;;4934777;29;20027;-72
2021/10/13 05:18:10;;;;;;;3.90;2.75;;;8.90;94.50;;;;;;4926001;29;20060;-72
2021/10/13 05:20:36;;;;;;;4.75;2.50;;;8.90;94.40;;;;;;4898430;29;20067;-71
2021/10/13 05:23:01;;;;;;;4.10;2.35;;;9.00;94.40;;;;;;4915094;29;20032;-71
2021/10/13 05:25:27;;;;;;;4.35;2.85;;;8.90;94.40;;;;;;4898072;29;20365;-77
2021/10/13 05:27:52;;;;;;;4.47;2.90;;;8.90;94.40;;;;;;4919836;29;20032;-70
2021/10/13 05:30:18;;;;;;;6.97;3.33;;;9.00;94.30;;;;;;4916624;29;20023;-69
2021/10/13 05:32:44;;;;;;;6.70;3.05;;;8.90;94.30;;;;;;4929545;29;20047;-70
2021/10/13 05:35:09;;;;;;;5.30;3.10;;;8.90;94.30;;;;;;4931313;29;20043;-71
2021/10/13 05:37:34;;;;;;;5.93;3.05;;;8.90;94.30;;;;;;4929382;29;20879;-70
2021/10/13 05:40:00;;;;;;;4.65;3.30;;;8.90;94.30;;;;;;4931697;29;20539;-71
2021/10/13 05:42:25;;;;;;;9.48;3.38;;;8.90;94.30;;;;;;4932862;29;20162;-71
2021/10/13 05:44:51;;;;;;;6.80;3.17;;;8.90;94.40;;;;;;4925027;29;20387;-71
2021/10/13 05:47:16;;;;;;;4.95;3.10;;;8.90;94.30;;;;;;4928377;29;20114;-71
2021/10/13 05:49:42;;;;;;;4.68;3.08;;;8.90;94.30;;;;;;4898338;29;20441;-71
2021/10/13 05:52:07;;;;;;;5.45;3.05;;;8.80;94.40;;;;;;4916643;29;20078;-71
2021/10/13 05:54:33;;;;;;;8.45;3.30;;;8.80;94.40;;;;;;4928993;29;20427;-70
2021/10/13 05:56:59;;;;;;;5.22;3.20;;;8.80;94.40;;;;;;4931227;29;20063;-71
2021/10/13 05:59:25;;;;;;;6.30;3.13;;;8.80;94.40;;;;;;4930653;29;20044;-71
2021/10/13 06:01:50;;;;;;;6.38;3.40;;;8.80;94.40;;;;;;4931697;29;20392;-71
2021/10/13 06:04:15;;;;;;;6.28;3.38;;;8.80;94.50;;;;;;4927055;29;20500;-71
2021/10/13 06:06:41;;;;;;;4.80;3.42;;;8.80;94.50;;;;;;4933191;29;20066;-70
2021/10/13 06:09:07;;;;;;;9.25;3.65;;;8.90;94.60;;;;;;4923468;29;20480;-70
2021/10/13 06:11:32;;;;;;;5.85;3.30;;;8.90;94.50;;;;;;4925188;29;20027;-70
2021/10/13 06:13:58;;;;;;;5.97;3.10;;;9.00;94.60;;;;;;4923484;29;20396;-69
2021/10/13 06:16:24;;;;;;;4.13;2.90;;;8.90;94.50;;;;;;4899284;29;20065;-69
2021/10/13 06:18:50;;;;;;;6.45;3.88;;;9.00;94.40;;;;;;4914798;29;20040;-70
2021/10/13 06:21:18;;;;;;;8.13;3.90;;;9.00;94.40;;;;;;4915474;29;20032;-70
2021/10/13 06:23:44;;;;;;;7.80;3.10;;;9.00;94.40;;;;;;4903046;29;20510;-70
2021/10/13 06:26:09;;;;;;;6.00;3.05;;;9.10;94.40;;;;;;4929661;29;20024;-70
2021/10/13 06:28:35;;;;;;;5.68;2.83;;;9.10;94.40;;;;;;4934037;29;20039;-70
2021/10/13 06:31:00;;;;;;;5.13;3.10;;;9.10;94.30;;;;;;4914842;29;20040;-69
2021/10/13 06:33:26;;;;;;;5.93;3.22;;;9.20;94.30;;;;;;4920575;29;20175;-70
2021/10/13 06:35:52;;;;;;;6.25;3.33;;;9.30;94.30;;;;;;4917455;29;20402;-69
2021/10/13 06:38:18;;;;;;;4.80;3.30;;;9.30;94.30;;;;;;4926103;29;20035;-70
2021/10/13 06:40:43;;;;;;;6.63;3.28;;;9.40;94.20;;;;;;4919568;29;20114;-69
2021/10/13 06:43:11;;;;;;;5.45;2.97;;;9.40;94.10;;;;;;4910671;29;20476;-70
2021/10/13 06:45:38;;;;;;;6.10;3.05;;;9.40;94.10;;;;;;4901443;29;20392;-70
2021/10/13 06:48:04;;;;;;;8.13;2.95;;;9.40;94.20;;;;;;4923610;29;20557;-69
2021/10/13 06:50:30;;;;;;;5.47;3.17;;;9.50;94.00;;;;;;4926595;29;20040;-69
2021/10/13 06:52:56;;;;;;;9.25;3.15;;;9.50;94.00;;;;;;4916792;29;20036;-69
2021/10/13 06:55:21;;;;;;;5.25;3.22;;;9.50;93.90;;;;;;4918856;29;20083;-69
2021/10/13 06:57:47;;;;;;;7.10;3.53;;;9.50;93.90;;;;;;4918764;29;20667;-70
2021/10/13 07:00:13;;;;;;;6.32;3.47;;;9.60;93.90;;;;;;4918314;29;20034;-69
2021/10/13 07:02:38;;;;;;;7.03;3.47;;;9.60;93.90;;;;;;4918904;29;20465;-69
2021/10/13 07:05:04;;;;;;;5.38;3.00;;;9.70;93.80;;;;;;4932606;29;20086;-69
2021/10/13 07:07:29;;;;;;;7.75;4.28;;;9.80;93.90;;;;;;4937101;29;20031;-70
2021/10/13 07:09:55;;;;;;;6.93;3.67;;;9.80;93.70;;;;;;4921726;29;20516;-70
2021/10/13 07:12:20;;;;;;;7.07;3.10;;;9.80;93.70;;;;;;4917930;29;20151;-70
2021/10/13 07:14:46;;;;;;;7.15;4.05;;;9.80;93.70;;;;;;4918294;29;20032;-70
2021/10/13 07:17:11;;;;;;;5.28;3.60;;;9.90;93.70;;;;;;4917776;29;20111;-70
2021/10/13 07:19:37;;;;;;;7.40;3.67;;;10.00;93.60;;;;;;4921218;29;20043;-70
2021/10/13 07:22:02;;;;;;;5.68;3.50;;;10.00;93.60;;;;;;4917850;29;20028;-70
2021/10/13 07:24:28;;;;;;;4.60;2.88;;;10.10;93.60;;;;;;4927171;29;20054;-70
2021/10/13 07:26:53;;;;;;;6.32;3.75;;;10.10;93.50;;;;;;4924852;29;20059;-70
2021/10/13 07:29:19;;;;;;;6.38;4.13;;;10.10;93.50;;;;;;4917392;29;20090;-70
2021/10/13 07:31:44;;;;;;;7.43;3.67;;;10.20;93.40;;;;;;4917240;29;20389;-72
2021/10/13 07:34:10;;;;;;;6.57;3.72;;;10.20;93.40;;;;;;4909062;29;20040;-70
2021/10/13 07:36:36;;;;;;;5.25;3.45;;;10.30;93.40;;;;;;4927499;29;20032;-69
2021/10/13 07:39:04;;;;;;;9.18;3.83;;;10.30;93.30;;;;;;4924384;29;20132;-69
2021/10/13 07:41:29;;;;;;;6.78;3.47;;;10.40;93.40;;;;;;4928736;29;20039;-69
2021/10/13 07:43:55;;;;;;;7.68;3.60;;;10.50;93.40;;;;;;4905209;29;20062;-70
2021/10/13 07:46:23;;;;;;;6.20;3.53;;;10.50;93.30;;;;;;4936165;29;20024;-69
2021/10/13 07:48:49;;;;;;;6.40;3.63;;;10.50;93.30;;;;;;4929411;29;20488;-69
2021/10/13 07:51:14;;;;;;;5.18;3.60;;;10.60;93.10;;;;;;4936202;29;20106;-70
2021/10/13 07:53:40;;;;;;;6.32;3.58;;;10.60;93.00;;;;;;4913472;29;20036;-69
2021/10/13 07:56:06;;;;;;;9.00;3.97;;;10.60;93.00;;;;;;4935175;29;20115;-69
2021/10/13 07:58:32;;;;;;;5.32;3.40;;;10.70;93.00;;;;;;4931173;29;20039;-69
2021/10/13 08:00:57;;;;;;;7.57;3.90;;;10.80;93.00;;;;;;4917093;29;20050;-69
2021/10/13 08:03:23;;;;;;;7.63;3.75;;;10.80;93.00;;;;;;4916090;29;20035;-69
2021/10/13 08:05:48;;;;;;;7.05;3.90;;;10.80;92.80;;;;;;4931639;29;20397;-70
2021/10/13 08:08:14;;;;;;;8.75;4.18;;;10.90;92.90;;;;;;4933053;29;20476;-71
2021/10/13 08:10:39;;;;;;;7.50;3.72;;;10.90;92.80;;;;;;4912781;29;20032;-71
2021/10/13 08:13:05;;;;;;;6.45;3.83;;;10.80;92.90;;;;;;4934430;29;20036;-70
2021/10/13 08:15:30;;;;;;;6.95;4.25;;;10.80;92.80;;;;;;4922789;29;20362;-70
2021/10/13 08:17:56;;;;;;;8.73;4.00;;;10.80;92.60;;;;;;4918438;29;20024;-72
2021/10/13 08:20:21;;;;;;;5.80;3.13;;;10.80;92.60;;;;;;4923140;29;20028;-71
2021/10/13 08:22:48;;;;;;;6.43;3.75;;;10.70;92.60;;;;;;4916277;29;20032;-68
2021/10/13 08:25:15;;;;;;;6.75;3.83;;;10.70;92.70;;;;;;4908522;29;20039;-70
2021/10/13 08:27:40;;;;;;;7.45;3.85;;;10.70;92.80;;;;;;4918603;29;20032;-69
2021/10/13 08:30:07;;;;;;;6.82;4.43;;;10.60;92.70;;;;;;4929987;29;20032;-70
2021/10/13 08:32:32;;;;;;;6.80;3.25;;;10.70;92.80;;;;;;4935169;29;20052;-69
2021/10/13 08:34:58;;;;;;;5.40;3.35;;;10.70;92.70;;;;;;4920425;29;20027;-69
2021/10/13 08:37:23;;;;;;;7.95;3.78;;;10.70;92.80;;;;;;4916635;29;20020;-69
2021/10/13 08:39:49;;;;;;;6.03;3.50;;;10.60;92.90;;;;;;4916561;29;20072;-70
2021/10/13 08:42:24;;;;;;;8.82;4.40;;;10.60;92.80;;;;;;4916234;29;20028;-70
2021/10/13 08:44:51;;;;;;;;;;;10.60;92.90;;;;;;4923467;29;20042;-69
2021/10/13 08:47:16;;;;;;;9.02;4.93;;;10.70;92.90;;;;;;4919460;29;19915;-71
2021/10/13 08:49:42;;;;;;;5.60;3.30;;;10.70;92.90;;;;;;4899171;29;20358;-70
2021/10/13 08:52:10;;;;;;;6.50;3.67;;;10.70;93.00;;;;;;4924501;29;20418;-70
2021/10/13 08:54:37;;;;;;;7.10;4.03;;;10.80;93.00;;;;;;4916530;29;20028;-69
2021/10/13 08:57:17;;;;;;;7.60;3.75;;;10.80;93.00;;;;;;4921733;29;20024;-69
2021/10/13 08:59:45;;;;;;;6.22;3.80;;;10.80;93.00;;;;;;4922570;29;20099;-70
2021/10/13 09:02:11;;;;;;;7.43;3.85;;;10.90;92.90;;;;;;4898438;29;20401;-69
2021/10/13 09:04:37;;;;;;;6.28;3.92;;;10.90;93.00;;;;;;4922466;29;20062;-69
2021/10/13 09:07:06;;;;;;;6.57;4.53;;;11.00;93.00;;;;;;4925412;29;20052;-69
2021/10/13 09:09:32;;;;;;;7.32;3.95;;;11.00;93.00;;;;;;4923041;29;20094;-68
2021/10/13 09:11:58;;;;;;;6.15;3.83;;;11.10;92.90;;;;;;4914785;29;20027;-68
2021/10/13 09:14:33;;;;;;;5.65;3.25;;;11.10;92.90;;;;;;4915608;29;20400;-68
2021/10/13 09:17:01;;;;;;;8.55;3.42;;;11.10;92.80;;;;;;4921902;29;20075;-69
2021/10/13 09:19:34;;;;;;;5.78;3.20;;;11.20;92.90;;;;;;4913090;29;20082;-68
2021/10/13 09:22:03;;;;;;;7.85;3.85;;;11.30;92.90;;;;;;4915043;29;20068;-69
2021/10/13 09:24:31;;;;;;;5.93;3.42;;;11.40;92.90;;;;;;4913941;29;20036;-69
2021/10/13 09:27:15;;;;;;;8.93;3.13;;;11.40;92.80;;;;;;4929418;29;20028;-70
2021/10/13 09:29:42;;;;;;;4.63;2.63;;;11.40;92.60;;;;;;4917356;29;20039;-70
2021/10/13 09:32:07;;;;;;;6.13;4.18;;;11.40;92.60;;;;;;4914439;29;20055;-70
2021/10/13 09:34:33;;;;;;;5.43;3.10;;;11.50;92.50;;;;;;4914606;29;20044;-70
2021/10/13 09:36:59;;;;;;;7.05;3.63;;;11.50;92.50;;;;;;4918580;29;20028;-70
2021/10/13 09:39:29;;;;;;;6.00;3.30;;;11.50;92.40;;;;;;4926063;29;20409;-70
2021/10/13 09:42:12;;;;;;;6.18;3.33;;;11.60;92.50;;;;;;4913893;29;20024;-70
2021/10/13 09:44:39;;;;;;;8.27;3.22;;;11.60;92.60;;;;;;4902672;29;20067;-71
2021/10/13 09:47:07;;;;;;;7.78;3.85;;;11.70;92.50;;;;;;4915881;29;20025;-70
2021/10/13 09:49:42;;;;;;;6.57;3.45;;;11.70;92.40;;;;;;4919064;29;20032;-70
2021/10/13 09:52:16;;;;;;;7.63;3.65;;;11.80;92.40;;;;;;4916584;29;20032;-70
2021/10/13 09:54:44;;;;;;;5.63;3.57;;;11.80;92.20;;;;;;4925417;29;20036;-69
2021/10/13 09:57:30;;;;;;;7.38;3.58;;;11.80;92.30;;;;;;4916416;29;20292;-70
2021/10/13 10:00:02;;;;;;;8.73;3.47;;;11.90;92.20;;;;;;4916149;29;20039;-69
2021/10/13 10:02:37;;;;;;;6.57;3.47;;;12.00;92.20;;;;;;4914397;29;20028;-69
2021/10/13 10:05:10;;;;;;;6.47;3.15;;;12.00;92.10;;;;;;4920261;29;20036;-70
2021/10/13 10:07:41;;;;;;;5.70;3.08;;;12.10;92.00;;;;;;4920767;29;20048;-69
2021/10/13 10:10:20;;;;;;;6.18;3.25;;;12.10;91.90;;;;;;4917523;29;20032;-70
2021/10/13 10:13:04;;;;;;;7.10;3.05;;;12.10;91.90;;;;;;4927003;29;20496;-68
2021/10/13 10:15:36;;;;;;;6.68;3.60;;;12.20;91.90;;;;;;4920033;29;20044;-68
2021/10/13 10:18:26;;;;;;;5.13;3.55;;;12.30;91.90;;;;;;4919596;29;20047;-67
2021/10/13 10:20:56;;;;;;;7.63;3.50;;;12.30;91.80;;;;;;4923579;29;20031;-66
2021/10/13 10:23:48;;;;;;;8.18;3.60;;;12.40;91.70;;;;;;4917389;29;20505;-67
2021/10/13 10:26:26;;;;;;;5.30;3.88;;;12.50;91.70;;;;;;4918553;29;20095;-67
2021/10/13 10:28:52;;;;;;;5.25;2.75;;;12.60;91.60;;;;;;4920536;29;20028;-67
2021/10/13 10:31:31;;;;;;;5.25;3.10;;;12.60;91.50;;;;;;4919148;29;20043;-67
2021/10/13 10:34:02;;;;;;;4.97;3.30;;;12.60;91.30;;;;;;4923426;28;20040;-67
2021/10/13 10:36:34;;;;;;;5.95;3.17;;;12.70;91.30;;;;;;4920539;29;20036;-67
2021/10/13 10:39:00;;;;;;;6.75;2.95;;;12.70;91.20;;;;;;4925977;29;20503;-67
2021/10/13 10:41:52;;;;;;;5.05;2.90;;;12.70;91.10;;;;;;4923203;29;20477;-67
2021/10/13 10:44:37;;;;;;;4.57;2.90;;;12.70;91.10;;;;;;4928257;29;20030;-68
2021/10/13 10:47:11;;;;;;;8.45;3.42;;;12.70;91.00;;;;;;4922465;29;20024;-68
2021/10/13 10:49:43;;;;;;;4.95;3.08;;;12.80;91.00;;;;;;4911118;29;20515;-67
2021/10/13 10:52:10;;;;;;;5.88;3.30;;;12.80;90.90;;;;;;4923529;29;20036;-69
2021/10/13 10:54:36;;;;;;;7.63;3.10;;;12.80;90.80;;;;;;4924260;29;20048;-69
2021/10/13 10:57:22;;;;;;;7.47;3.50;;;12.80;90.90;;;;;;4907817;29;20453;-69
2021/10/13 10:59:48;;;;;;;4.20;2.90;;;12.90;90.90;;;;;;4922282;29;20036;-69
2021/10/13 11:02:21;;;;;;;5.97;3.03;;;12.90;90.70;;;;;;4885948;29;20035;-68
2021/10/13 11:05:01;;;;;;;6.53;3.25;;;12.90;90.60;;;;;;4930677;29;20042;-69
2021/10/13 11:07:27;;;;;;;6.65;2.95;;;13.00;90.80;;;;;;4937032;29;20055;-69
2021/10/13 11:10:01;;;;;;;5.30;2.70;;;13.00;90.70;;;;;;4935332;29;20028;-69
2021/10/13 11:12:27;;;;;;;4.50;2.78;;;13.10;90.70;;;;;;4937045;29;20391;-67
2021/10/13 11:15:11;;;;;;;4.88;3.17;;;13.10;90.70;;;;;;4917781;29;20044;-68
2021/10/13 11:17:37;;;;;;;5.87;2.90;;;13.20;90.70;;;;;;4917702;29;20453;-68
2021/10/13 11:20:10;;;;;;;5.47;2.88;;;13.30;90.60;;;;;;4917094;29;20296;-68
2021/10/13 11:22:36;;;;;;;5.85;3.30;;;13.30;90.40;;;;;;4899805;29;20039;-68
2021/10/13 11:25:15;;;;;;;4.18;2.55;;;13.30;90.50;;;;;;4916748;29;20405;-68
2021/10/13 11:27:42;;;;;;;5.22;2.95;;;13.30;90.40;;;;;;4917871;29;20080;-68
2021/10/13 11:30:18;;;;;;;4.38;2.60;;;13.30;90.30;;;;;;4932729;29;20039;-67
2021/10/13 11:32:45;;;;;;;4.47;2.47;;;13.30;90.40;;;;;;4936394;29;20488;-68
2021/10/13 11:35:11;;;;;;;7.28;2.70;;;13.30;90.30;;;;;;4928381;29;20039;-68
2021/10/13 11:37:36;;;;;;;6.22;2.70;;;13.30;90.20;;;;;;4936540;29;20044;-68
2021/10/13 11:40:03;;;;;;;6.38;2.30;;;13.40;90.30;;;;;;4919967;29;20036;-68
2021/10/13 11:42:30;;;;;;;3.50;2.13;;;13.50;90.20;;;;;;4917345;29;20017;-68
2021/10/13 11:44:56;;;;;;;3.40;2.22;;;13.60;90.10;;;;;;4917795;29;20103;-68
2021/10/13 11:47:35;;;;;;;4.07;2.42;;;13.80;90.00;;;;;;4899791;29;20634;-69
2021/10/13 11:50:06;;;;;;;3.33;2.15;;;13.90;89.60;;;;;;4931623;29;20043;-68
2021/10/13 11:52:33;;;;;;;5.80;2.30;;;14.00;89.30;;;;;;4936128;29;20479;-68
2021/10/13 11:55:06;;;;;;;3.58;2.33;;;14.10;89.10;;;;;;4919912;29;20476;-69
2021/10/13 11:57:33;;;;;;;3.67;2.40;;;14.20;88.60;;;;;;4916494;29;20020;-68
2021/10/13 12:00:15;;;;;;;5.53;1.90;;;14.20;88.60;;;;;;4917347;29;20039;-68
2021/10/13 12:02:53;;;;;;;6.93;2.20;;;14.30;88.40;;;;;;4916719;29;20425;-68
2021/10/13 12:05:19;;;;;;;4.88;2.20;;;14.40;88.20;;;;;;4933536;29;20302;-68
2021/10/13 12:07:45;;;;;;;4.18;2.20;;;14.40;87.00;;;;;;4935820;29;20031;-68
2021/10/13 12:10:11;;;;;;;5.07;2.13;;;14.40;87.20;;;;;;4934430;29;20075;-68
2021/10/13 12:12:38;;;;;;;5.55;2.30;;;14.50;87.40;;;;;;4920764;29;20048;-68
2021/10/13 12:15:21;;;;;;;6.35;2.60;;;14.60;87.20;;;;;;4916394;29;20068;-68
2021/10/13 12:17:47;;;;;;;4.07;2.28;;;14.70;86.90;;;;;;4922815;29;20492;-68
2021/10/13 12:20:20;;;;;;;4.50;2.30;;;14.70;86.80;;;;;;4917542;29;20037;-69
2021/10/13 12:22:48;;;;;;;4.10;2.60;;;14.80;86.60;;;;;;4916712;29;20389;-69
2021/10/13 12:25:30;;;;;;;5.63;2.50;;;14.80;85.80;;;;;;4932610;29;20118;-69
2021/10/13 12:27:58;;;;;;;5.63;2.50;;;14.80;86.00;;;;;;4935526;29;20030;-69
2021/10/13 12:30:37;;;;;;;4.25;2.67;;;14.80;85.70;;;;;;4934359;29;20388;-69
2021/10/13 12:33:09;;;;;;;6.50;2.80;;;14.80;85.40;;;;;;4933858;29;20055;-69
2021/10/13 12:35:35;;;;;;;3.45;2.42;;;14.80;84.60;;;;;;4915829;29;20036;-69
2021/10/13 12:38:08;;;;;;;5.88;2.53;;;14.70;84.60;;;;;;4916691;29;20083;-68
2021/10/13 12:40:34;;;;;;;6.32;2.50;;;14.70;84.60;;;;;;4916389;29;20032;-68
2021/10/13 12:43:21;;;;;;;4.45;2.80;;;14.70;84.70;;;;;;4918353;29;20027;-68
2021/10/13 12:45:47;;;;;;;4.97;2.28;;;14.70;84.50;;;;;;4916246;29;20042;-68
2021/10/13 12:48:15;;;;;;;4.50;2.70;;;14.70;84.20;;;;;;4916441;29;20110;-68
2021/10/13 12:51:12;;;;;;;4.07;2.70;;;14.70;84.10;;;;;;4927738;29;20479;-67
2021/10/13 12:53:38;;;;;;;6.07;2.80;;;14.70;84.40;;;;;;4942830;29;20036;-68
2021/10/13 12:56:06;;;;;;;4.97;3.10;;;14.70;84.40;;;;;;4915880;29;20032;-69
2021/10/13 12:58:33;;;;;;;5.20;2.28;;;14.70;84.30;;;;;;4916221;29;20480;-69
2021/10/13 13:00:58;;;;;;;6.38;2.38;;;14.80;84.40;;;;;;4916033;29;20067;-68